createdAt,value
2023-05-08T00:00:21.414Z,15.96
2023-05-08T00:02:48.956Z,14.44
2023-05-08T00:05:17.733Z,16.34
2023-05-08T00:07:46.017Z,15.39
2023-05-08T00:10:14.389Z,14.63
2023-05-08T00:12:42.620Z,12.73
2023-05-08T00:15:11.266Z,13.49
2023-05-08T00:17:39.431Z,14.82
2023-05-08T00:20:09.024Z,13.68
2023-05-08T00:22:36.284Z,14.44
2023-05-08T00:25:05.960Z,14.63
2023-05-08T00:27:33.101Z,15.20
2023-05-08T00:30:01.630Z,13.30
2023-05-08T00:32:29.995Z,16.72
2023-05-08T00:34:58.187Z,12.73
2023-05-08T00:37:26.788Z,13.30
2023-05-08T00:39:55.087Z,13.68
2023-05-08T00:42:23.681Z,12.54
2023-05-08T00:44:52.301Z,13.49
2023-05-08T00:47:23.311Z,17.10
2023-05-08T00:49:53.173Z,14.25
2023-05-08T00:52:20.799Z,13.68
2023-05-08T00:54:49.817Z,12.16
2023-05-08T00:57:17.677Z,10.64
2023-05-08T00:59:47.074Z,14.63
2023-05-08T01:02:17.351Z,16.15
2023-05-08T01:04:48.467Z,17.10
2023-05-08T01:07:19.104Z,14.44
2023-05-08T01:09:49.376Z,14.63
2023-05-08T01:12:25.353Z,12.54
2023-05-08T01:15:21.392Z,16.72
2023-05-08T01:18:19.093Z,14.06
2023-05-08T01:21:18.200Z,14.63
2023-05-08T01:24:00.363Z,13.30
2023-05-08T01:26:58.428Z,13.87
2023-05-08T01:29:44.169Z,13.49
2023-05-08T01:32:22.420Z,14.82
2023-05-08T01:35:24.050Z,19.38
2023-05-08T01:38:10.780Z,13.11
2023-05-08T01:41:03.323Z,14.44
2023-05-08T01:43:54.380Z,15.20
2023-05-08T01:46:27.702Z,14.63
2023-05-08T01:49:04.055Z,13.11
2023-05-08T01:51:43.766Z,13.87
2023-05-08T01:54:19.911Z,15.96
2023-05-08T01:56:54.171Z,15.58
2023-05-08T01:59:28.200Z,14.06
2023-05-08T02:02:01.862Z,15.20
2023-05-08T02:04:34.781Z,15.96
2023-05-08T02:07:05.417Z,15.96
2023-05-08T02:09:37.084Z,14.82
2023-05-08T02:12:14.235Z,18.43
2023-05-08T02:14:49.077Z,15.39
2023-05-08T02:17:20.981Z,14.06
2023-05-08T02:19:54.299Z,15.77
2023-05-08T02:22:26.215Z,13.49
2023-05-08T02:24:58.496Z,16.72
2023-05-08T02:27:31.559Z,13.30
2023-05-08T02:30:01.936Z,13.49
2023-05-08T02:32:34.595Z,17.29
2023-05-08T02:35:06.540Z,15.20
2023-05-08T02:37:37.104Z,16.15
2023-05-08T02:40:08.248Z,14.06
2023-05-08T02:42:38.021Z,17.48
2023-05-08T02:45:09.676Z,15.77
2023-05-08T02:48:07.969Z,20.71
2023-05-08T02:50:59.253Z,15.96
2023-05-08T02:53:58.525Z,13.30
2023-05-08T02:56:39.275Z,16.34
2023-05-08T02:59:28.902Z,15.39
2023-05-08T03:02:27.717Z,15.77
2023-05-08T03:05:11.419Z,15.77
2023-05-08T03:07:44.757Z,14.25
2023-05-08T03:10:17.287Z,17.29
2023-05-08T03:12:53.423Z,17.86
2023-05-08T03:15:36.615Z,15.01
2023-05-08T03:18:17.806Z,15.58
2023-05-08T03:20:56.253Z,18.62
2023-05-08T03:23:30.016Z,16.72
2023-05-08T03:26:01.004Z,16.53
2023-05-08T03:28:31.486Z,16.15
2023-05-08T03:31:02.822Z,16.15
2023-05-08T03:33:33.918Z,21.28
2023-05-08T03:36:02.976Z,16.15
2023-05-08T03:38:35.031Z,20.33
2023-05-08T03:41:05.218Z,16.72
2023-05-08T03:43:37.254Z,18.81
2023-05-08T03:46:09.182Z,15.01
2023-05-08T03:48:41.229Z,18.05
2023-05-08T03:51:11.114Z,18.05
2023-05-08T03:53:39.363Z,19.00
2023-05-08T03:56:07.260Z,17.67
2023-05-08T03:59:14.756Z,21.47
2023-05-08T04:02:12.558Z,16.34
2023-05-08T04:04:47.333Z,19.00
2023-05-08T04:07:35.233Z,19.19
2023-05-08T04:10:21.585Z,19.19
2023-05-08T04:13:19.911Z,18.05
2023-05-08T04:16:05.279Z,17.67
2023-05-08T04:18:39.845Z,20.33
2023-05-08T04:21:18.274Z,20.71
2023-05-08T04:23:51.634Z,19.38
2023-05-08T04:26:19.703Z,17.10
2023-05-08T04:28:48.853Z,20.33
2023-05-08T04:31:18.167Z,17.48
2023-05-08T04:33:48.230Z,19.57
2023-05-08T04:36:16.103Z,21.85
2023-05-08T04:38:44.516Z,18.24
2023-05-08T04:41:13.084Z,21.66
2023-05-08T04:43:42.171Z,21.85
2023-05-08T04:46:10.130Z,19.95
2023-05-08T04:48:38.292Z,22.23
2023-05-08T04:51:06.582Z,18.81
2023-05-08T04:53:34.917Z,20.33
2023-05-08T04:56:03.742Z,19.19
2023-05-08T04:58:31.823Z,20.90
2023-05-08T05:01:05.089Z,19.57
2023-05-08T05:03:34.937Z,19.95
2023-05-08T05:06:05.465Z,17.86
2023-05-08T05:08:35.294Z,20.33
2023-05-08T05:11:05.066Z,17.67
2023-05-08T05:13:34.975Z,18.81
2023-05-08T05:16:05.522Z,20.52
2023-05-08T05:18:35.260Z,18.24
2023-05-08T05:21:04.981Z,16.72
2023-05-08T05:23:34.681Z,17.10
2023-05-08T05:26:04.911Z,19.00
2023-05-08T05:28:34.681Z,17.10
2023-05-08T05:31:05.044Z,19.00
2023-05-08T05:33:34.796Z,17.48
2023-05-08T05:36:05.336Z,19.38
2023-05-08T05:38:35.175Z,18.05
2023-05-08T05:41:04.947Z,17.29
2023-05-08T05:43:34.707Z,14.25
2023-05-08T05:46:06.954Z,13.87
2023-05-08T05:48:36.857Z,16.15
2023-05-08T05:51:06.666Z,13.11
2023-05-08T05:53:36.404Z,13.30
2023-05-08T05:56:07.066Z,16.15
2023-05-08T05:58:36.769Z,13.11
2023-05-08T06:01:06.487Z,13.87
2023-05-08T06:03:36.362Z,11.97
2023-05-08T06:06:06.516Z,14.25
2023-05-08T06:08:36.181Z,12.92
2023-05-08T06:11:06.069Z,11.21
2023-05-08T06:13:35.981Z,13.87
2023-05-08T06:16:04.479Z,12.54
2023-05-08T06:18:32.643Z,14.63
2023-05-08T06:21:01.304Z,13.11
2023-05-08T06:23:29.495Z,14.82
2023-05-08T06:25:57.895Z,15.01
2023-05-08T06:28:27.381Z,12.54
2023-05-08T06:30:54.806Z,12.16
2023-05-08T06:33:25.459Z,11.02
2023-05-08T06:35:54.564Z,14.25
2023-05-08T06:38:22.981Z,10.83
2023-05-08T06:40:51.774Z,11.40
2023-05-08T06:43:19.926Z,11.40
2023-05-08T06:45:48.290Z,12.35
2023-05-08T06:48:16.690Z,10.07
2023-05-08T06:50:45.217Z,10.45
2023-05-08T06:53:13.706Z,10.83
2023-05-08T06:55:45.333Z,11.78
2023-05-08T06:58:15.348Z,9.12
2023-05-08T07:00:45.093Z,11.40
2023-05-08T07:03:15.053Z,12.73
2023-05-08T07:05:44.878Z,8.74
2023-05-08T07:08:14.630Z,9.50
2023-05-08T07:10:44.472Z,9.50
2023-05-08T07:13:14.299Z,10.83
2023-05-08T07:15:44.144Z,13.87
2023-05-08T07:18:14.123Z,7.98
2023-05-08T07:20:43.970Z,9.69
2023-05-08T07:23:13.870Z,11.02
2023-05-08T07:25:43.954Z,9.88
2023-05-08T07:28:13.912Z,9.12
2023-05-08T07:30:43.646Z,10.07
2023-05-08T07:33:13.539Z,11.21
2023-05-08T07:35:43.432Z,7.60
2023-05-08T07:38:13.126Z,7.60
2023-05-08T07:40:42.890Z,8.36
2023-05-08T07:43:13.707Z,8.93
2023-05-08T07:45:43.462Z,7.98
2023-05-08T07:48:13.207Z,8.17
2023-05-08T07:50:43.068Z,9.69
2023-05-08T07:53:12.814Z,8.74
2023-05-08T07:55:42.733Z,9.50
2023-05-08T07:58:12.656Z,9.69
2023-05-08T08:00:42.724Z,8.93
2023-05-08T08:03:12.504Z,7.79
2023-05-08T08:05:42.953Z,8.17
2023-05-08T08:08:12.775Z,9.69
2023-05-08T08:10:42.504Z,12.73
2023-05-08T08:13:12.227Z,8.36
2023-05-08T08:15:42.073Z,9.50
2023-05-08T08:18:11.907Z,7.03
2023-05-08T08:20:41.765Z,7.79
2023-05-08T08:23:11.496Z,9.50
2023-05-08T08:25:41.496Z,7.22
2023-05-08T08:28:11.246Z,8.93
2023-05-08T08:30:41.078Z,8.17
2023-05-08T08:33:10.919Z,8.36
2023-05-08T08:35:40.762Z,8.74
2023-05-08T08:38:10.685Z,9.31
2023-05-08T08:40:42.129Z,8.93
2023-05-08T08:43:10.563Z,9.69
2023-05-08T08:45:40.385Z,9.31
2023-05-08T08:48:12.616Z,8.93
2023-05-08T08:50:47.421Z,7.79
2023-05-08T08:53:30.958Z,8.17
2023-05-08T08:56:03.864Z,8.36
2023-05-08T08:58:46.765Z,9.50
2023-05-08T09:01:19.597Z,10.64
2023-05-08T09:03:50.575Z,7.60
2023-05-08T09:06:20.416Z,8.17
2023-05-08T09:08:55.028Z,11.78
2023-05-08T09:11:25.797Z,9.31
2023-05-08T09:13:56.482Z,8.36
2023-05-08T09:16:28.396Z,7.79
2023-05-08T09:18:58.372Z,8.55
2023-05-08T09:21:28.947Z,7.60
2023-05-08T09:23:59.076Z,7.79
2023-05-08T09:26:35.982Z,11.02
2023-05-08T09:29:23.845Z,9.50
2023-05-08T09:31:53.654Z,9.50
2023-05-08T09:34:33.307Z,11.97
2023-05-08T09:37:05.616Z,8.17
2023-05-08T09:39:35.683Z,9.69
2023-05-08T09:42:06.790Z,8.17
2023-05-08T09:44:52.245Z,8.36
2023-05-08T09:47:25.600Z,9.69
2023-05-08T09:50:04.718Z,8.36
2023-05-08T09:52:37.236Z,7.60
2023-05-08T09:55:11.274Z,8.17
2023-05-08T09:57:57.192Z,11.21
2023-05-08T10:00:29.272Z,8.17
2023-05-08T10:03:03.461Z,7.41
2023-05-08T10:05:38.589Z,7.79
2023-05-08T10:08:23.427Z,7.03
2023-05-08T10:10:53.510Z,7.79
2023-05-08T10:13:23.555Z,7.79
2023-05-08T10:15:56.371Z,8.36
2023-05-08T10:18:35.350Z,8.36
2023-05-08T10:21:08.810Z,7.60
2023-05-08T10:23:42.426Z,8.93
2023-05-08T10:26:16.191Z,10.45
2023-05-08T10:29:14.267Z,9.31
2023-05-08T10:31:46.712Z,8.93
2023-05-08T10:34:22.750Z,7.60
2023-05-08T10:36:54.143Z,9.50
2023-05-08T10:39:25.795Z,8.17
2023-05-08T10:41:56.493Z,8.93
2023-05-08T10:44:31.925Z,7.60
2023-05-08T10:47:23.282Z,8.17
2023-05-08T10:50:52.500Z,8.74
2023-05-08T10:53:47.140Z,8.36
2023-05-08T10:56:17.099Z,7.60
2023-05-08T10:58:59.309Z,12.16
2023-05-08T11:01:29.133Z,6.84
2023-05-08T11:03:59.102Z,10.64
2023-05-08T11:06:52.658Z,8.93
2023-05-08T11:09:43.100Z,9.12
2023-05-08T11:12:31.910Z,8.74
2023-05-08T11:15:05.096Z,10.45
2023-05-08T11:17:35.047Z,9.50
2023-05-08T11:20:08.089Z,9.69
2023-05-08T11:22:37.697Z,6.65
2023-05-08T11:25:12.021Z,7.79
2023-05-08T11:27:49.907Z,7.98
2023-05-08T11:30:39.984Z,8.93
2023-05-08T11:33:09.198Z,9.12
2023-05-08T11:35:47.460Z,7.60
2023-05-08T11:38:26.796Z,8.17
2023-05-08T11:41:06.340Z,9.31
2023-05-08T11:43:49.236Z,6.84
2023-05-08T11:46:21.836Z,7.22
2023-05-08T11:49:01.423Z,7.60
2023-05-08T11:51:36.037Z,9.12
2023-05-08T11:54:06.583Z,7.60
2023-05-08T11:56:39.014Z,6.65
2023-05-08T11:59:09.660Z,13.11
2023-05-08T12:01:39.484Z,7.79
2023-05-08T12:04:12.146Z,7.41
2023-05-08T12:06:42.681Z,7.98
2023-05-08T12:09:16.055Z,6.65
2023-05-08T12:11:45.866Z,12.35
2023-05-08T12:14:18.022Z,8.55
2023-05-08T12:16:47.823Z,7.03
2023-05-08T12:19:17.675Z,7.79
2023-05-08T12:21:49.019Z,8.17
2023-05-08T12:24:23.163Z,7.03
2023-05-08T12:26:57.648Z,9.31
2023-05-08T12:29:27.244Z,9.12
2023-05-08T12:31:57.359Z,8.93
2023-05-08T12:34:27.772Z,8.74
2023-05-08T12:37:05.188Z,10.07
2023-05-08T12:39:38.938Z,7.98
2023-05-08T12:42:12.915Z,8.36
2023-05-08T12:44:53.918Z,7.41
2023-05-08T12:47:25.600Z,6.65
2023-05-08T12:49:58.246Z,7.03
2023-05-08T12:52:28.869Z,7.22
2023-05-08T12:54:58.724Z,6.46
2023-05-08T12:57:28.593Z,9.12
2023-05-08T13:00:06.292Z,9.12
2023-05-08T13:02:39.491Z,6.46
2023-05-08T13:05:21.404Z,8.74
2023-05-08T13:07:52.003Z,8.17
2023-05-08T13:10:23.180Z,6.65
2023-05-08T13:12:54.292Z,8.93
2023-05-08T13:15:24.163Z,6.65
2023-05-08T13:17:54.072Z,6.65
2023-05-08T13:20:23.947Z,7.98
2023-05-08T13:22:54.164Z,8.74
2023-05-08T13:25:23.846Z,8.17
2023-05-08T13:27:53.827Z,10.07
2023-05-08T13:30:23.651Z,8.55
2023-05-08T13:32:54.322Z,10.83
2023-05-08T13:35:25.187Z,11.59
2023-05-08T13:37:56.818Z,6.65
2023-05-08T13:40:27.750Z,8.74
2023-05-08T13:42:57.567Z,7.79
2023-05-08T13:45:27.528Z,8.55
2023-05-08T13:47:57.411Z,8.17
2023-05-08T13:50:27.342Z,8.17
2023-05-08T13:52:57.115Z,6.65
2023-05-08T13:55:26.880Z,9.31
2023-05-08T13:57:58.693Z,7.79
2023-05-08T14:00:28.765Z,9.12
2023-05-08T14:02:58.567Z,6.65
2023-05-08T14:05:28.386Z,8.17
2023-05-08T14:07:58.053Z,7.22
2023-05-08T14:10:27.757Z,11.02
2023-05-08T14:12:57.504Z,7.79
2023-05-08T14:15:34.817Z,6.65
2023-05-08T14:18:07.286Z,8.93
2023-05-08T14:20:37.098Z,6.84
2023-05-08T14:23:05.439Z,8.36
2023-05-08T14:25:33.916Z,7.22
2023-05-08T14:28:02.259Z,8.93
2023-05-08T14:30:30.661Z,8.17
2023-05-08T14:32:59.303Z,8.36
2023-05-08T14:35:27.570Z,9.88
2023-05-08T14:37:55.926Z,7.41
2023-05-08T14:40:24.718Z,9.50
2023-05-08T14:42:52.969Z,9.12
2023-05-08T14:45:21.376Z,9.50
2023-05-08T14:47:49.813Z,8.74
2023-05-08T14:50:18.297Z,7.22
2023-05-08T14:52:46.537Z,9.31
2023-05-08T14:55:20.936Z,7.79
2023-05-08T14:57:51.133Z,9.50
2023-05-08T15:00:21.314Z,12.35
2023-05-08T15:02:51.184Z,8.93
2023-05-08T15:05:21.110Z,7.98
2023-05-08T15:07:50.886Z,7.98
2023-05-08T15:10:20.774Z,11.40
2023-05-08T15:12:50.942Z,7.41
2023-05-08T15:15:20.767Z,7.79
2023-05-08T15:17:50.521Z,9.31
2023-05-08T15:20:21.115Z,7.03
2023-05-08T15:22:50.936Z,8.36
2023-05-08T15:25:20.728Z,7.79
2023-05-08T15:27:52.705Z,7.79
2023-05-08T15:30:22.809Z,8.36
2023-05-08T15:32:52.753Z,8.93
2023-05-08T15:35:22.674Z,7.98
2023-05-08T15:37:52.467Z,8.36
2023-05-08T15:40:22.264Z,8.93
2023-05-08T15:42:51.962Z,8.36
2023-05-08T15:45:21.730Z,7.98
2023-05-08T15:47:49.811Z,7.41
2023-05-08T15:50:19.031Z,9.31
2023-05-08T15:52:48.946Z,9.50
2023-05-08T15:55:18.758Z,6.65
2023-05-08T15:57:48.604Z,7.98
2023-05-08T16:00:20.128Z,9.88
2023-05-08T16:02:50.129Z,9.88
2023-05-08T16:05:20.044Z,9.12
2023-05-08T16:07:51.634Z,7.60
2023-05-08T16:10:22.048Z,8.93
2023-05-08T16:12:51.879Z,7.41
2023-05-08T16:15:21.906Z,9.12
2023-05-08T16:17:51.599Z,8.17
2023-05-08T16:20:21.721Z,9.12
2023-05-08T16:22:55.993Z,7.22
2023-05-08T16:25:26.586Z,7.79
2023-05-08T16:27:56.307Z,7.22
2023-05-08T16:30:26.542Z,10.45
2023-05-08T16:32:56.308Z,7.03
2023-05-08T16:35:26.226Z,9.12
2023-05-08T16:37:54.598Z,9.12
2023-05-08T16:40:22.952Z,8.74
2023-05-08T16:42:52.386Z,8.17
2023-05-08T16:49:45.687Z,8.55
2023-05-08T16:52:15.461Z,8.93
2023-05-08T16:54:45.267Z,7.98
2023-05-08T16:57:15.193Z,8.55
2023-05-08T16:59:44.931Z,9.50
2023-05-08T17:02:18.879Z,8.74
2023-05-08T17:04:49.027Z,12.73
2023-05-08T17:07:18.648Z,8.36
2023-05-08T17:09:52.880Z,9.88
2023-05-08T17:12:21.950Z,9.50
2023-05-08T17:14:52.992Z,7.41
2023-05-08T17:17:22.728Z,9.50
2023-05-08T17:19:52.584Z,8.17
2023-05-08T17:22:22.564Z,8.74
2023-05-08T17:24:50.896Z,8.55
2023-05-08T17:27:19.606Z,11.21
2023-05-08T17:29:47.937Z,8.17
2023-05-08T17:32:16.050Z,8.36
2023-05-08T17:34:44.693Z,8.17
2023-05-08T17:37:13.120Z,7.60
2023-05-08T17:39:41.507Z,7.03
2023-05-08T17:42:17.079Z,9.31
2023-05-08T17:44:47.449Z,10.07
2023-05-08T17:47:17.272Z,10.83
2023-05-08T17:49:47.016Z,8.36
2023-05-08T17:52:16.786Z,8.36
2023-05-08T17:54:46.597Z,8.74
2023-05-08T17:57:16.298Z,10.45
2023-05-08T17:59:46.183Z,7.60
2023-05-08T18:02:15.930Z,7.03
2023-05-08T18:05:20.699Z,6.84
2023-05-08T18:07:50.269Z,7.79
2023-05-08T18:10:21.076Z,7.03
2023-05-08T18:12:50.268Z,11.59
2023-05-08T18:15:20.115Z,7.03
2023-05-08T18:17:50.044Z,9.50
2023-05-08T18:20:23.634Z,8.93
2023-05-08T18:22:53.130Z,9.12
2023-05-08T18:25:20.717Z,9.50
2023-05-08T18:27:50.555Z,9.12
2023-05-08T18:30:20.184Z,7.98
2023-05-08T18:32:49.141Z,9.12
2023-05-08T18:35:17.918Z,9.88
2023-05-08T18:37:45.485Z,9.50
2023-05-08T18:40:14.377Z,7.98
2023-05-08T18:42:42.381Z,6.46
2023-05-08T18:45:11.922Z,9.50
2023-05-08T18:47:39.313Z,7.03
2023-05-08T18:50:09.299Z,10.07
2023-05-08T18:52:39.283Z,12.35
2023-05-08T18:55:09.968Z,7.60
2023-05-08T18:57:39.859Z,7.98
2023-05-08T19:00:10.880Z,7.60
2023-05-08T19:02:41.112Z,9.88
2023-05-08T19:05:11.376Z,6.27
2023-05-08T19:07:42.832Z,7.60
2023-05-08T19:10:13.641Z,7.60
2023-05-08T19:12:44.358Z,8.74
2023-05-08T19:15:14.657Z,9.88
2023-05-08T19:17:44.678Z,8.17
2023-05-08T19:20:14.842Z,7.79
2023-05-08T19:22:47.043Z,9.69
2023-05-08T19:25:16.613Z,9.88
2023-05-08T19:27:46.664Z,7.41
2023-05-08T19:30:16.782Z,9.31
2023-05-08T19:32:46.601Z,7.22
2023-05-08T19:35:16.733Z,8.36
2023-05-08T19:37:46.870Z,7.79
2023-05-08T19:40:16.805Z,7.60
2023-05-08T19:42:46.774Z,10.26
2023-05-08T19:45:16.550Z,9.31
2023-05-08T19:47:49.810Z,8.55
2023-05-08T19:50:19.722Z,10.64
2023-05-08T19:52:49.647Z,10.83
2023-05-08T19:55:20.236Z,9.12
2023-05-08T19:57:49.935Z,8.93
2023-05-08T20:00:19.777Z,11.02
2023-05-08T20:02:49.571Z,10.26
2023-05-08T20:05:22.897Z,10.83
2023-05-08T20:07:53.075Z,10.26
2023-05-08T20:10:23.032Z,14.25
2023-05-08T20:12:52.851Z,13.30
2023-05-08T20:15:22.575Z,9.69
2023-05-08T20:17:52.513Z,10.45
2023-05-08T20:20:22.805Z,8.17
2023-05-08T20:22:53.260Z,9.31
2023-05-08T20:25:23.117Z,8.74
2023-05-08T20:27:53.780Z,11.78
2023-05-08T20:30:23.921Z,11.59
2023-05-08T20:32:53.958Z,12.16
2023-05-08T20:35:24.008Z,9.12
2023-05-08T20:37:53.899Z,11.97
2023-05-08T20:40:23.786Z,8.93
2023-05-08T20:42:52.240Z,10.26
2023-05-08T20:45:20.535Z,11.02
2023-05-08T20:47:49.196Z,11.40
2023-05-08T20:50:17.726Z,14.63
2023-05-08T20:52:46.111Z,9.31
2023-05-08T20:55:14.692Z,9.31
2023-05-08T20:57:42.862Z,10.64
2023-05-08T21:00:12.706Z,9.50
2023-05-08T21:02:43.581Z,11.21
2023-05-08T21:05:11.151Z,9.12
2023-05-08T21:07:39.151Z,9.50
2023-05-08T21:10:08.675Z,11.40
2023-05-08T21:12:35.963Z,9.31
2023-05-08T21:15:06.266Z,11.78
2023-05-08T21:17:36.087Z,9.69
2023-05-08T21:20:07.301Z,10.45
2023-05-08T21:22:37.052Z,11.78
2023-05-08T21:25:09.474Z,12.73
2023-05-08T21:27:39.137Z,11.02
2023-05-08T21:30:14.993Z,11.59
2023-05-08T21:32:46.223Z,11.21
2023-05-08T21:35:16.341Z,11.59
2023-05-08T21:37:46.261Z,11.59
2023-05-08T21:40:16.043Z,13.87
2023-05-08T21:42:46.080Z,11.02
2023-05-08T21:45:16.100Z,9.69
2023-05-08T21:47:46.038Z,10.26
2023-05-08T21:50:14.575Z,10.07
2023-05-08T21:52:42.953Z,10.26
2023-05-08T21:55:11.606Z,9.50
2023-05-08T21:57:39.726Z,9.12
2023-05-08T22:00:09.764Z,9.69
2023-05-08T22:02:36.644Z,10.64
2023-05-08T22:05:06.279Z,12.35
2023-05-08T22:07:34.000Z,11.59
2023-05-08T22:10:01.891Z,9.50
2023-05-08T22:12:30.268Z,10.83
2023-05-08T22:14:58.803Z,11.02
2023-05-08T22:17:27.413Z,14.25
2023-05-08T22:19:55.529Z,10.07
2023-05-08T22:22:23.846Z,9.50
2023-05-08T22:24:52.672Z,10.64
2023-05-08T22:27:21.165Z,13.30
2023-05-08T22:29:49.089Z,10.64
2023-05-08T22:32:18.101Z,10.07
2023-05-08T22:34:49.643Z,12.35
2023-05-08T22:37:20.238Z,11.59
2023-05-08T22:39:50.121Z,11.02
2023-05-08T22:42:20.103Z,11.21
2023-05-08T22:44:50.222Z,10.26
2023-05-08T22:47:18.620Z,11.59
2023-05-08T22:49:47.943Z,9.50
2023-05-08T22:52:15.146Z,13.87
2023-05-08T22:54:43.570Z,11.78
2023-05-08T22:57:12.026Z,11.97
2023-05-08T22:59:40.454Z,10.64
2023-05-08T23:02:08.933Z,12.54
2023-05-08T23:04:37.577Z,12.73
2023-05-08T23:07:05.691Z,17.86
2023-05-08T23:09:34.234Z,11.78
2023-05-08T23:12:03.957Z,13.49
2023-05-08T23:14:31.088Z,12.54
2023-05-08T23:16:59.362Z,10.07
2023-05-08T23:19:27.859Z,10.83
2023-05-08T23:21:56.364Z,10.45
2023-05-08T23:24:24.714Z,11.59
2023-05-08T23:26:53.195Z,11.97
2023-05-08T23:29:21.448Z,10.83
2023-05-08T23:31:49.976Z,11.02
2023-05-08T23:34:18.390Z,13.49
2023-05-08T23:36:46.941Z,10.26
2023-05-08T23:39:15.312Z,10.45
2023-05-08T23:41:43.730Z,11.59
2023-05-08T23:44:12.210Z,12.35
2023-05-08T23:46:40.631Z,13.68
2023-05-08T23:49:09.284Z,14.06
2023-05-08T23:51:37.527Z,16.53
2023-05-08T23:54:06.939Z,10.83
2023-05-08T23:56:34.450Z,11.21
2023-05-08T23:59:03.585Z,13.11
